Time;durP1;ratioP1;P1;durP2;ratioP2;P2;SDS_P1;SDS_P2;PMS_P1;PMS_P2;Temp;Humidity;BMP_temperature;BMP_pressure;BME280_temperature;BME280_humidity;BME280_pressure;Samples;Min_cycle;Max_cycle;Signal;HPM_P1;HPM_P2
2021/07/12 00:02:18;;;;;;;11.48;6.47;;;;;;;20.15;100.00;97845.53;5063475;28;20107;-86
2021/07/12 00:04:43;;;;;;;9.70;7.22;;;;;;;20.12;100.00;97837.94;5090562;28;20028;-87
2021/07/12 00:07:09;;;;;;;10.80;6.43;;;;;;;20.13;100.00;97831.22;5091987;28;20028;-84
2021/07/12 00:09:34;;;;;;;9.25;6.63;;;;;;;20.08;100.00;97836.25;5087872;28;20020;-88
2021/07/12 00:11:59;;;;;;;9.50;7.40;;;;;;;20.00;100.00;97840.00;5083978;28;20069;-87
2021/07/12 00:14:25;;;;;;;8.80;6.57;;;;;;;20.13;100.00;97839.56;5061414;28;20465;-87
2021/07/12 00:16:50;;;;;;;8.68;6.03;;;;;;;20.18;100.00;97846.78;5063628;28;20078;-88
2021/07/12 00:19:16;;;;;;;7.57;6.05;;;;;;;20.12;100.00;97832.38;5059503;28;20028;-87
2021/07/12 00:21:41;;;;;;;9.63;5.43;;;;;;;20.05;100.00;97843.31;5076901;28;20051;-87
2021/07/12 00:24:07;;;;;;;8.23;6.07;;;;;;;20.00;100.00;97832.47;5082619;28;20500;-86
2021/07/12 00:26:32;;;;;;;9.02;5.57;;;;;;;19.93;100.00;97837.84;5060100;28;20020;-87
2021/07/12 00:28:58;;;;;;;11.13;6.65;;;;;;;19.91;100.00;97842.97;5060094;28;20045;-86
2021/07/12 00:31:23;;;;;;;9.63;6.32;;;;;;;19.90;100.00;97837.75;5059871;28;20028;-88
2021/07/12 00:33:49;;;;;;;7.82;6.38;;;;;;;19.72;100.00;97838.13;5078898;28;20021;-88
2021/07/12 00:36:14;;;;;;;11.23;6.97;;;;;;;19.61;100.00;97823.16;5060685;28;20473;-86
2021/07/12 00:38:39;;;;;;;9.50;6.60;;;;;;;19.69;100.00;97835.28;5077704;28;20115;-86
2021/07/12 00:41:05;;;;;;;8.88;6.25;;;;;;;19.81;100.00;97828.81;5076975;28;20046;-85
2021/07/12 00:43:31;;;;;;;8.35;6.35;;;;;;;19.81;100.00;97829.63;5059715;28;20028;-84
2021/07/12 00:45:56;;;;;;;9.43;5.68;;;;;;;19.87;100.00;97822.63;5077208;28;20040;-87
2021/07/12 00:48:22;;;;;;;11.02;5.97;;;;;;;19.72;100.00;97826.22;5076466;28;20020;-87
2021/07/12 00:50:47;;;;;;;9.90;6.55;;;;;;;19.64;100.00;97832.78;5059992;28;20444;-85
2021/07/12 00:53:14;;;;;;;10.10;6.53;;;;;;;19.58;100.00;97828.63;5060315;28;20039;-86
2021/07/12 00:55:50;;;;;;;7.57;6.30;;;;;;;19.58;100.00;97817.53;5075250;28;20017;-87
2021/07/12 00:58:18;;;;;;;12.70;7.32;;;;;;;19.45;100.00;97822.34;5075674;28;20035;-84
2021/07/12 01:00:46;;;;;;;11.10;6.75;;;;;;;19.41;100.00;97828.97;5063632;28;20048;-86
2021/07/12 01:03:12;;;;;;;8.45;6.53;;;;;;;19.29;100.00;97817.94;5067741;28;20032;-86
2021/07/12 01:05:40;;;;;;;9.82;6.95;;;;;;;19.23;100.00;97812.63;5071931;28;20043;-87
2021/07/12 01:08:06;;;;;;;7.80;6.25;;;;;;;19.36;100.00;97816.13;5080237;28;20028;-86
2021/07/12 01:10:32;;;;;;;10.55;7.38;;;;;;;19.26;100.00;97814.69;5093299;28;20116;-86
2021/07/12 01:13:03;;;;;;;9.48;7.18;;;;;;;19.24;100.00;97813.44;5094705;28;20013;-87
2021/07/12 01:15:54;;;;;;;11.10;7.45;;;;;;;19.28;100.00;97808.78;5076747;28;20039;-86
2021/07/12 01:18:46;;;;;;;11.02;7.60;;;;;;;19.26;100.00;97802.81;5074073;28;20460;-86
2021/07/12 01:21:39;;;;;;;10.25;7.65;;;;;;;19.44;100.00;97806.88;5088357;28;20139;-86
2021/07/12 01:24:37;;;;;;;8.45;7.18;;;;;;;19.43;100.00;97821.09;5066319;28;20538;-86
2021/07/12 01:27:21;;;;;;;15.48;8.38;;;;;;;19.33;100.00;97821.63;5060526;28;20036;-87
2021/07/12 01:30:08;;;;;;;10.43;7.90;;;;;;;19.39;100.00;97820.19;5084287;28;20048;-87
2021/07/12 01:32:44;;;;;;;9.73;7.30;;;;;;;19.31;100.00;97830.28;5083528;28;20025;-83
2021/07/12 01:35:45;;;;;;;9.63;7.50;;;;;;;19.35;100.00;97825.63;5086586;28;20035;-88
2021/07/12 01:38:23;;;;;;;9.57;7.40;;;;;;;19.38;100.00;97821.34;5071393;28;20033;-86
2021/07/12 01:41:04;;;;;;;11.68;7.78;;;;;;;19.29;100.00;97818.75;5059602;28;20031;-88
2021/07/12 01:43:48;;;;;;;14.73;8.02;;;;;;;19.27;100.00;97819.06;5059227;28;20036;-84
2021/07/12 01:46:34;;;;;;;9.50;7.20;;;;;;;19.48;100.00;97815.31;5057468;28;20029;-86
2021/07/12 01:49:12;;;;;;;11.75;8.30;;;;;;;19.21;100.00;97814.94;5068813;28;20083;-87
2021/07/12 01:51:47;;;;;;;11.93;7.18;;;;;;;18.97;100.00;97809.53;5078242;28;20029;-86
2021/07/12 01:54:38;;;;;;;10.52;7.30;;;;;;;18.93;100.00;97821.66;5062077;28;20066;-86
2021/07/12 01:57:15;;;;;;;12.00;7.88;;;;;;;18.86;100.00;97816.72;5086222;28;20058;-87
2021/07/12 01:59:56;;;;;;;10.98;7.28;;;;;;;19.05;100.00;97822.44;5077362;28;20024;-88
2021/07/12 02:02:24;;;;;;;10.52;7.55;;;;;;;19.05;100.00;97822.44;5080293;28;20025;-86
2021/07/12 02:04:52;;;;;;;9.40;7.05;;;;;;;18.94;100.00;97820.53;5090752;28;20550;-87
2021/07/12 02:07:17;;;;;;;17.13;7.65;;;;;;;18.83;100.00;97819.41;5096863;28;20025;-87
2021/07/12 02:09:47;;;;;;;8.95;7.38;;;;;;;18.91;100.00;97821.22;5094276;28;20046;-86
2021/07/12 02:12:14;;;;;;;7.80;6.97;;;;;;;18.99;100.00;97823.84;5093984;28;20100;-86
2021/07/12 02:14:41;;;;;;;9.48;7.28;;;;;;;18.73;100.00;97814.38;5096577;28;20108;-86
2021/07/12 02:17:10;;;;;;;9.80;7.80;;;;;;;18.71;100.00;97818.28;5093678;28;20447;-85
2021/07/12 02:19:36;;;;;;;10.18;7.78;;;;;;;18.74;100.00;97816.78;5098266;28;20020;-86
2021/07/12 02:22:03;;;;;;;10.48;6.97;;;;;;;18.80;100.00;97809.00;5097601;28;20025;-87
2021/07/12 02:24:30;;;;;;;9.32;7.28;;;;;;;18.90;100.00;97808.53;5096203;28;20766;-87
2021/07/12 02:26:57;;;;;;;9.75;6.82;;;;;;;19.00;100.00;97808.00;5094467;28;20028;-86
2021/07/12 02:29:23;;;;;;;9.27;6.93;;;;;;;19.01;100.00;97815.19;5076896;28;20072;-85
2021/07/12 02:31:51;;;;;;;11.95;7.28;;;;;;;18.94;100.00;97821.34;5095532;28;20029;-86
2021/07/12 02:34:17;;;;;;;11.32;7.13;;;;;;;19.05;100.00;97819.66;5075825;28;20013;-87
2021/07/12 02:36:45;;;;;;;10.50;7.40;;;;;;;19.08;100.00;97818.13;5096723;28;20066;-86
2021/07/12 02:39:12;;;;;;;9.02;7.32;;;;;;;19.13;100.00;97827.03;5095431;28;20076;-87
2021/07/12 02:41:38;;;;;;;8.15;6.65;;;;;;;19.11;100.00;97826.56;5078170;28;20040;-86
2021/07/12 02:44:06;;;;;;;10.30;6.72;;;;;;;19.27;100.00;97819.06;5069705;28;20035;-87
2021/07/12 02:46:32;;;;;;;9.45;7.03;;;;;;;19.09;100.00;97811.44;5096889;28;20016;-86
2021/07/12 02:48:58;;;;;;;7.70;6.68;;;;;;;19.02;100.00;97828.69;5094448;28;20063;-82
2021/07/12 02:51:38;;;;;;;10.35;6.57;;;;;;;18.93;100.00;97814.16;5073566;28;20066;-87
2021/07/12 02:54:06;;;;;;;11.65;7.15;;;;;;;18.99;100.00;97818.28;5097410;28;20039;-86
2021/07/12 02:56:32;;;;;;;8.80;7.65;;;;;;;19.07;100.00;97822.91;5098834;28;20012;-87
2021/07/12 02:58:58;;;;;;;9.82;7.35;;;;;;;18.92;100.00;97818.09;5095646;28;20032;-87
2021/07/12 03:01:24;;;;;;;9.88;7.05;;;;;;;18.85;100.00;97819.88;5095287;28;20055;-88
2021/07/12 03:03:49;;;;;;;9.52;7.00;;;;;;;18.83;100.00;97825.75;5097319;28;20036;-87
2021/07/12 03:06:17;;;;;;;13.15;7.90;;;;;;;18.95;100.00;97830.47;5079397;28;20016;-87
2021/07/12 03:08:54;;;;;;;15.10;7.32;;;;;;;19.28;100.00;97825.44;5079299;28;20023;-83
2021/07/12 03:11:25;;;;;;;10.23;7.20;;;;;;;19.25;100.00;97824.19;5080175;28;20040;-83
2021/07/12 03:14:16;;;;;;;12.00;7.97;;;;;;;19.20;100.00;97832.75;5095467;28;20024;-88
2021/07/12 03:16:43;;;;;;;8.68;7.13;;;;;;;19.16;100.00;97829.09;5089882;28;20049;-87
2021/07/12 03:19:14;;;;;;;10.75;8.43;;;;;;;19.03;100.00;97830.31;5048291;28;20116;-84
2021/07/12 03:21:42;;;;;;;8.65;6.85;;;;;;;18.94;100.00;97843.50;5058015;28;20087;-86
2021/07/12 03:24:09;;;;;;;11.13;7.68;;;;;;;19.09;100.00;97834.44;5063230;28;20058;-86
2021/07/12 03:26:40;;;;;;;9.07;7.40;;;;;;;19.19;100.00;97833.13;5079498;28;20024;-88
2021/07/12 03:29:07;;;;;;;9.00;6.85;;;;;;;19.24;100.00;97833.66;5077759;28;20044;-86
2021/07/12 03:31:34;;;;;;;11.27;7.70;;;;;;;19.13;100.00;97829.00;5076852;28;20029;-86
2021/07/12 03:34:00;;;;;;;11.85;6.32;;;;;;;19.24;100.00;97822.56;5076833;28;20028;-86
2021/07/12 03:36:29;;;;;;;13.95;7.00;;;;;;;19.08;100.00;97830.03;5077130;28;20407;-88
2021/07/12 03:38:55;;;;;;;12.70;6.43;;;;;;;19.07;100.00;97820.13;5060203;28;20031;-87
2021/07/12 03:41:21;;;;;;;12.07;7.88;;;;;;;19.10;100.00;97824.97;5077417;28;20024;-89
2021/07/12 03:43:47;;;;;;;9.50;7.07;;;;;;;19.05;100.00;97829.94;5059125;28;20021;-87
2021/07/12 03:46:12;;;;;;;9.10;7.93;;;;;;;19.11;100.00;97834.88;5076900;28;20020;-87
2021/07/12 03:48:46;;;;;;;12.20;8.45;;;;;;;19.02;100.00;97834.22;5076621;28;20431;-87
2021/07/12 03:51:31;;;;;;;10.07;7.07;;;;;;;19.12;100.00;97833.72;5072277;28;20021;-86
2021/07/12 03:53:57;;;;;;;12.63;7.50;;;;;;;19.31;100.00;97843.34;5069913;28;20028;-84
2021/07/12 03:56:22;;;;;;;8.50;7.63;;;;;;;19.44;100.00;97851.28;5062280;28;20443;-74
2021/07/12 03:58:48;;;;;;;13.88;7.65;;;;;;;19.35;100.00;97858.94;5071547;28;20040;-74
2021/07/12 04:01:19;;;;;;;9.82;7.43;;;;;;;19.31;100.00;97863.56;5070815;28;20040;-73
2021/07/12 04:03:46;;;;;;;7.90;6.45;;;;;;;19.37;100.00;97864.91;5070622;28;20025;-74
2021/07/12 04:06:11;;;;;;;10.18;7.65;;;;;;;19.38;100.00;97862.94;5052565;28;20438;-74
2021/07/12 04:08:37;;;;;;;10.15;7.43;;;;;;;19.38;100.00;97865.72;5052878;28;20469;-74
2021/07/12 04:11:02;;;;;;;10.05;7.60;;;;;;;19.34;100.00;97848.16;5071320;28;20043;-74
2021/07/12 04:13:27;;;;;;;15.88;6.97;;;;;;;19.44;100.00;97853.25;5071186;28;20024;-75
2021/07/12 04:15:53;;;;;;;12.05;7.03;;;;;;;19.37;100.00;97859.38;5070930;28;20647;-76
2021/07/12 04:18:18;;;;;;;13.25;7.53;;;;;;;19.62;100.00;97848.97;5070840;28;20029;-74
2021/07/12 04:20:44;;;;;;;8.93;7.25;;;;;;;19.81;100.00;97848.25;5054112;28;20032;-77
2021/07/12 04:23:10;;;;;;;10.82;6.25;;;;;;;19.75;100.00;97840.19;5071206;28;20024;-75
2021/07/12 04:25:36;;;;;;;12.57;6.43;;;;;;;19.56;100.00;97847.63;5052915;28;20051;-78
2021/07/12 04:28:02;;;;;;;10.27;6.75;;;;;;;19.46;100.00;97854.50;5053052;28;20024;-73
2021/07/12 04:30:27;;;;;;;12.23;7.00;;;;;;;19.48;100.00;97845.81;5070528;28;20045;-75
2021/07/12 04:32:53;;;;;;;10.45;6.78;;;;;;;19.45;100.00;97849.31;5070757;28;20474;-74
2021/07/12 04:35:18;;;;;;;17.55;8.10;;;;;;;19.38;100.00;97849.09;5070605;28;20102;-75
2021/07/12 04:37:44;;;;;;;10.57;8.18;;;;;;;19.39;100.00;97839.59;5051896;28;20071;-75
2021/07/12 04:40:10;;;;;;;13.73;8.32;;;;;;;19.39;100.00;97845.94;5070186;28;20032;-73
2021/07/12 04:42:35;;;;;;;13.10;10.00;;;;;;;19.50;100.00;97849.03;5070653;28;20404;-73
2021/07/12 04:45:02;;;;;;;10.50;7.60;;;;;;;19.47;100.00;97861.66;5070711;28;20040;-73
2021/07/12 04:47:28;;;;;;;12.35;7.00;;;;;;;19.63;100.00;97859.72;5070432;28;20052;-74
2021/07/12 04:49:54;;;;;;;17.92;7.80;;;;;;;19.60;100.00;97854.06;5070718;28;20024;-74
2021/07/12 04:52:19;;;;;;;12.55;7.72;;;;;;;19.57;100.00;97854.78;5070053;28;20078;-74
2021/07/12 04:54:45;;;;;;;16.10;8.57;;;;;;;19.42;100.00;97852.78;5069790;28;20668;-74
2021/07/12 04:57:10;;;;;;;8.85;7.55;;;;;;;19.42;100.00;97853.56;5068460;28;20021;-75
2021/07/12 04:59:39;;;;;;;11.30;8.25;;;;;;;19.73;100.00;97855.59;5069245;28;20035;-76
2021/07/12 05:02:10;;;;;;;11.30;8.55;;;;;;;19.59;100.00;97858.00;5051401;28;20029;-74
2021/07/12 05:04:36;;;;;;;13.75;7.45;;;;;;;19.57;100.00;97850.03;5070160;28;20500;-83
2021/07/12 05:07:05;;;;;;;9.88;7.35;;;;;;;19.57;100.00;97857.56;5071856;28;20059;-82
2021/07/12 05:09:31;;;;;;;9.07;6.50;;;;;;;19.69;100.00;97858.28;5071633;28;20028;-84
2021/07/12 05:11:57;;;;;;;10.60;6.90;;;;;;;19.71;100.00;97858.72;5072614;28;20032;-86
2021/07/12 05:14:24;;;;;;;8.93;6.68;;;;;;;20.00;100.00;97859.44;5052727;28;20539;-78
2021/07/12 05:16:50;;;;;;;12.15;7.45;;;;;;;19.83;100.00;97846.72;5055424;28;20025;-78
2021/07/12 05:19:16;;;;;;;10.23;6.95;;;;;;;20.01;100.00;97858.28;5070222;28;20028;-78
2021/07/12 05:21:42;;;;;;;11.38;7.50;;;;;;;19.92;100.00;97852.94;5052251;28;20106;-78
2021/07/12 05:24:07;;;;;;;12.63;6.68;;;;;;;20.10;100.00;97872.78;5069692;28;20032;-78
2021/07/12 05:26:33;;;;;;;8.27;6.95;;;;;;;20.22;100.00;97873.50;5052516;28;20447;-74
2021/07/12 05:28:59;;;;;;;11.93;7.78;;;;;;;20.04;100.00;97880.59;5069896;28;20631;-75
2021/07/12 05:31:25;;;;;;;9.15;7.25;;;;;;;20.05;100.00;97878.59;5069737;28;20032;-74
2021/07/12 05:33:50;;;;;;;9.68;7.32;;;;;;;20.06;100.00;97877.44;5069952;28;20102;-74
2021/07/12 05:36:16;;;;;;;11.40;7.50;;;;;;;20.12;100.00;97874.03;5069617;28;20881;-75
2021/07/12 05:38:42;;;;;;;10.05;8.80;;;;;;;20.24;100.00;97879.50;5069348;28;20421;-74
2021/07/12 05:41:07;;;;;;;8.88;7.55;;;;;;;20.04;100.00;97874.22;5069927;28;20044;-75
2021/07/12 05:43:33;;;;;;;11.20;8.55;;;;;;;19.91;100.00;97881.03;5053424;28;20036;-85
2021/07/12 05:45:59;;;;;;;14.73;9.43;;;;;;;20.01;100.00;97886.88;5071255;28;20473;-83
2021/07/12 05:48:24;;;;;;;14.98;9.38;;;;;;;19.95;100.00;97876.38;5069899;28;20028;-83
2021/07/12 05:50:50;;;;;;;15.35;8.93;;;;;;;20.20;100.00;97870.25;5071136;28;20025;-83
2021/07/12 05:53:16;;;;;;;11.82;8.82;;;;;;;20.24;100.00;97881.47;5071776;28;20059;-83
2021/07/12 05:55:42;;;;;;;14.02;8.52;;;;;;;20.15;100.00;97880.84;5054015;28;20109;-84
2021/07/12 05:58:08;;;;;;;12.90;9.93;;;;;;;20.12;100.00;97876.81;5071845;28;20444;-81
2021/07/12 06:00:34;;;;;;;11.02;9.68;;;;;;;20.18;100.00;97889.25;5071598;28;20029;-84
2021/07/12 06:02:59;;;;;;;10.10;8.68;;;;;;;20.30;99.13;97889.19;5071600;28;20559;-83
2021/07/12 06:05:25;;;;;;;12.13;8.20;;;;;;;20.35;98.33;97895.66;5069370;28;20074;-81
2021/07/12 06:07:50;;;;;;;11.32;8.10;;;;;;;20.43;99.22;97903.78;5044159;28;20600;-82
2021/07/12 06:10:16;;;;;;;10.30;7.88;;;;;;;20.63;100.00;97905.47;5070416;28;20535;-82
2021/07/12 06:12:43;;;;;;;11.02;7.57;;;;;;;20.62;100.00;97911.38;5053524;28;20016;-80
2021/07/12 06:15:09;;;;;;;13.45;8.23;;;;;;;20.47;100.00;97904.69;5054052;28;20029;-83
2021/07/12 06:17:36;;;;;;;12.73;8.07;;;;;;;20.57;100.00;97897.75;5071161;28;20115;-83
2021/07/12 06:20:04;;;;;;;8.70;6.82;;;;;;;20.69;100.00;97901.22;5071915;28;20100;-82
2021/07/12 06:22:30;;;;;;;7.18;5.60;;;;;;;20.81;98.73;97903.88;5053897;28;20025;-83
2021/07/12 06:24:55;;;;;;;12.30;7.00;;;;;;;20.78;97.61;97893.50;5064952;28;20016;-84
2021/07/12 06:27:21;;;;;;;13.90;6.75;;;;;;;20.69;97.05;97901.22;5034260;28;20033;-82
2021/07/12 06:29:46;;;;;;;12.80;6.15;;;;;;;20.75;96.33;97888.66;5032760;28;20109;-82
2021/07/12 06:32:12;;;;;;;7.90;5.88;;;;;;;20.99;97.18;97904.25;5050898;28;20040;-81
2021/07/12 06:34:37;;;;;;;8.18;6.40;;;;;;;21.16;94.50;97895.53;5050718;28;20063;-82
2021/07/12 06:37:03;;;;;;;14.02;6.65;;;;;;;21.29;92.21;97908.13;5050409;28;20025;-80
2021/07/12 06:39:28;;;;;;;11.18;7.43;;;;;;;21.25;92.06;97898.91;5064682;28;20476;-83
2021/07/12 06:41:53;;;;;;;10.98;6.90;;;;;;;21.18;92.07;97895.16;5063489;28;20029;-81
2021/07/12 06:44:19;;;;;;;13.57;6.88;;;;;;;20.95;93.14;97903.41;5041622;28;20108;-83
2021/07/12 06:46:44;;;;;;;9.75;6.53;;;;;;;21.10;93.62;97887.84;5044571;28;20052;-81
2021/07/12 06:49:10;;;;;;;10.75;7.65;;;;;;;21.19;93.01;97875.31;5068687;28;20025;-83
2021/07/12 06:51:35;;;;;;;12.65;6.63;;;;;;;21.14;92.96;97894.28;5041579;28;20029;-83
2021/07/12 06:54:01;;;;;;;13.98;6.38;;;;;;;21.14;94.13;97889.53;5068785;28;20468;-82
2021/07/12 06:56:26;;;;;;;10.82;6.38;;;;;;;21.18;95.25;97895.16;5060769;28;20811;-83
2021/07/12 06:58:52;;;;;;;13.45;6.07;;;;;;;21.14;92.99;97891.50;5068838;28;20078;-85
2021/07/12 07:01:18;;;;;;;10.30;7.15;;;;;;;21.56;92.33;97894.31;5046336;28;20436;-87
2021/07/12 07:03:44;;;;;;;13.98;6.55;;;;;;;21.61;88.75;97885.69;5071460;28;20036;-77
2021/07/12 07:06:09;;;;;;;8.77;6.28;;;;;;;21.52;89.13;97887.91;5052622;28;20048;-76
2021/07/12 07:08:35;;;;;;;8.68;6.95;;;;;;;21.47;89.71;97879.84;5070627;28;20024;-73
2021/07/12 07:11:00;;;;;;;7.38;5.15;;;;;;;21.88;89.37;97890.16;5069608;28;20040;-72
2021/07/12 07:13:26;;;;;;;11.45;7.60;;;;;;;22.07;86.88;97886.53;5070868;28;20105;-73
2021/07/12 07:15:52;;;;;;;10.20;5.97;;;;;;;22.20;87.18;97885.16;5061055;28;20748;-75
2021/07/12 07:18:17;;;;;;;8.20;5.88;;;;;;;22.70;83.97;97895.13;5064014;28;20029;-73
2021/07/12 07:20:43;;;;;;;9.55;6.88;;;;;;;22.53;85.14;97882.50;5059449;28;20047;-73
2021/07/12 07:23:09;;;;;;;10.40;6.20;;;;;;;22.72;84.80;97879.63;5065809;28;20545;-73
2021/07/12 07:25:34;;;;;;;7.57;6.75;;;;;;;22.90;79.43;97885.44;5068619;28;20115;-73
2021/07/12 07:28:01;;;;;;;7.00;5.57;;;;;;;22.81;80.63;97882.13;5068468;28;20056;-73
2021/07/12 07:30:27;;;;;;;10.00;6.55;;;;;;;22.78;80.97;97883.69;5065303;28;20736;-73
2021/07/12 07:32:53;;;;;;;9.95;6.00;;;;;;;22.97;78.10;97885.53;5070011;28;20040;-73
2021/07/12 07:35:18;;;;;;;7.78;5.35;;;;;;;23.92;76.38;97883.09;5067390;28;20024;-73
2021/07/12 07:37:46;;;;;;;5.40;4.65;;;;;;;24.10;72.10;97881.25;5059507;28;20024;-72
2021/07/12 07:40:13;;;;;;;6.43;5.82;;;;;;;24.11;71.65;97880.09;5044241;28;20009;-73
2021/07/12 07:42:39;;;;;;;5.40;4.85;;;;;;;24.42;69.49;97867.56;5069053;28;20040;-73
2021/07/12 07:45:07;;;;;;;5.10;4.53;;;;;;;24.09;68.60;97874.03;5069870;28;20020;-73
2021/07/12 07:47:33;;;;;;;5.60;4.97;;;;;;;24.66;69.03;97872.53;5069599;28;20016;-72
2021/07/12 07:49:59;;;;;;;5.63;5.00;;;;;;;24.93;68.87;97862.75;5051956;28;20024;-73
2021/07/12 07:52:24;;;;;;;5.88;4.63;;;;;;;25.19;67.90;97858.84;5067681;28;20058;-73
2021/07/12 07:54:50;;;;;;;8.48;6.25;;;;;;;24.26;69.14;97845.47;5069197;28;20360;-72
2021/07/12 07:57:16;;;;;;;10.52;6.25;;;;;;;24.27;70.92;97852.69;5069787;28;20456;-72
2021/07/12 07:59:42;;;;;;;9.20;6.18;;;;;;;24.42;71.94;97842.41;5058090;28;20009;-72
2021/07/12 08:02:07;;;;;;;7.22;5.63;;;;;;;24.29;69.76;97844.69;5059733;28;20038;-72
2021/07/12 08:04:33;;;;;;;7.80;6.53;;;;;;;23.93;71.31;97853.97;5059678;28;20029;-73
2021/07/12 08:06:58;;;;;;;6.10;5.50;;;;;;;24.72;70.12;97856.16;5041293;28;20036;-77
2021/07/12 08:09:24;;;;;;;5.30;4.80;;;;;;;25.76;65.71;97848.63;5060533;28;20029;-73
2021/07/12 08:11:51;;;;;;;6.50;4.72;;;;;;;26.92;60.79;97849.81;5059129;28;20029;-72
2021/07/12 08:14:17;;;;;;;6.40;5.00;;;;;;;26.88;60.59;97849.00;5058564;28;20028;-73
2021/07/12 08:16:43;;;;;;;5.32;4.47;;;;;;;27.32;57.46;97835.22;5056453;28;20047;-75
2021/07/12 08:19:08;;;;;;;7.50;5.05;;;;;;;28.01;55.62;97845.66;5059639;28;20025;-73
2021/07/12 08:21:34;;;;;;;4.88;4.38;;;;;;;26.60;58.29;97833.00;5059366;28;20086;-73
2021/07/12 08:23:59;;;;;;;6.05;4.85;;;;;;;26.18;61.35;97839.50;5041901;28;20475;-74
2021/07/12 08:26:25;;;;;;;5.30;4.60;;;;;;;27.63;55.67;97841.88;5060636;28;20031;-74
2021/07/12 08:28:51;;;;;;;5.72;5.20;;;;;;;27.28;54.97;97840.06;5059839;28;20045;-74
2021/07/12 08:31:16;;;;;;;5.22;4.68;;;;;;;26.98;55.89;97834.16;5067398;28;20028;-73
2021/07/12 08:33:42;;;;;;;5.18;4.68;;;;;;;26.39;58.09;97833.06;5061870;28;20021;-75
2021/07/12 08:36:07;;;;;;;6.30;5.70;;;;;;;26.29;58.59;97834.66;5066638;28;20016;-72
2021/07/12 08:38:33;;;;;;;7.57;4.82;;;;;;;25.84;60.64;97835.44;5050787;28;20031;-74
2021/07/12 08:40:59;;;;;;;7.47;5.63;;;;;;;24.70;65.56;97827.78;5048612;28;20036;-72
2021/07/12 08:43:24;;;;;;;6.35;5.20;;;;;;;24.86;65.16;97828.31;5049886;28;20046;-72
2021/07/12 08:45:50;;;;;;;6.70;5.55;;;;;;;26.04;62.03;97831.03;5050409;28;20115;-73
2021/07/12 08:48:16;;;;;;;5.57;4.97;;;;;;;26.57;61.13;97834.63;5058647;28;20544;-72
2021/07/12 08:50:42;;;;;;;6.03;5.03;;;;;;;26.38;60.51;97829.44;5060533;28;20124;-73
2021/07/12 08:53:08;;;;;;;6.05;5.45;;;;;;;26.23;59.32;97822.25;5061167;28;20017;-73
2021/07/12 08:55:34;;;;;;;7.20;5.88;;;;;;;26.77;58.31;97820.16;5056073;28;20496;-73
2021/07/12 08:58:01;;;;;;;9.38;5.63;;;;;;;27.32;58.41;97817.53;5074422;28;20090;-72
2021/07/12 09:00:51;;;;;;;6.22;5.50;;;;;;;26.68;57.10;97814.97;5054037;28;20024;-73
2021/07/12 09:03:29;;;;;;;11.20;5.80;;;;;;;25.61;60.69;97813.38;5069946;28;20095;-75
2021/07/12 09:05:57;;;;;;;6.53;5.70;;;;;;;25.08;64.73;97807.59;5066959;28;20042;-73
2021/07/12 09:08:41;;;;;;;9.60;8.38;;;;;;;25.10;64.38;97810.81;5057477;28;20020;-73
2021/07/12 09:11:14;;;;;;;7.25;6.10;;;;;;;25.28;63.78;97820.06;5068030;28;20549;-75
2021/07/12 09:13:54;;;;;;;10.60;7.53;;;;;;;24.63;65.95;97813.75;5065346;28;20025;-72
2021/07/12 09:16:44;;;;;;;7.53;6.82;;;;;;;25.24;63.14;97810.88;5050618;28;20389;-73
2021/07/12 09:19:17;;;;;;;7.38;6.10;;;;;;;25.52;63.63;97805.38;5049084;28;20121;-73
2021/07/12 09:21:47;;;;;;;7.45;6.43;;;;;;;25.38;62.71;97804.47;5051017;28;20495;-73
2021/07/12 09:24:28;;;;;;;8.98;6.53;;;;;;;25.43;62.50;97804.91;5069912;28;20039;-72
2021/07/12 09:26:56;;;;;;;6.85;5.97;;;;;;;25.43;61.70;97804.09;5062965;28;20039;-72
2021/07/12 09:29:27;;;;;;;10.35;6.35;;;;;;;26.20;59.42;97795.00;5048367;28;20104;-73
2021/07/12 09:31:53;;;;;;;7.32;6.43;;;;;;;26.27;58.18;97800.63;5073311;28;20021;-75
2021/07/12 09:34:20;;;;;;;9.77;6.80;;;;;;;26.18;57.93;97805.84;5069604;28;20483;-73
2021/07/12 09:36:46;;;;;;;8.18;6.72;;;;;;;26.37;57.94;97804.59;5069139;28;20115;-73
2021/07/12 09:39:30;;;;;;;10.82;6.88;;;;;;;26.76;57.47;97801.69;5069005;28;20096;-73
2021/07/12 09:41:58;;;;;;;9.00;6.72;;;;;;;26.80;56.84;97805.31;5066498;28;20058;-74
2021/07/12 09:44:28;;;;;;;9.80;6.82;;;;;;;27.32;55.33;97806.31;5050956;28;20086;-74
2021/07/12 09:46:56;;;;;;;7.68;6.38;;;;;;;27.51;54.53;97798.19;5068729;28;20067;-73
2021/07/12 09:49:23;;;;;;;7.00;6.28;;;;;;;27.89;55.01;97815.22;5069046;28;20028;-73
2021/07/12 09:51:54;;;;;;;15.88;6.63;;;;;;;28.48;52.22;97804.66;5065947;28;20024;-76
2021/07/12 09:54:27;;;;;;;7.32;6.63;;;;;;;28.15;52.91;97800.56;5063579;28;20039;-72
2021/07/12 09:56:56;;;;;;;8.38;6.30;;;;;;;28.16;53.38;97802.19;5058025;28;20037;-73
2021/07/12 09:59:22;;;;;;;7.20;6.10;;;;;;;27.60;54.26;97792.91;5059230;28;20017;-73
2021/07/12 10:01:53;;;;;;;6.93;6.32;;;;;;;27.81;53.20;97786.34;5069353;28;20048;-75
2021/07/12 10:04:20;;;;;;;7.90;6.00;;;;;;;28.43;51.70;97774.97;5069889;28;20029;-74
2021/07/12 10:06:48;;;;;;;8.55;6.38;;;;;;;28.56;50.75;97787.31;5062408;28;20081;-74
2021/07/12 10:09:14;;;;;;;7.22;6.22;;;;;;;28.72;49.37;97786.75;5052801;28;20389;-73
2021/07/12 10:11:43;;;;;;;8.05;7.13;;;;;;;28.93;50.50;97780.06;5055973;28;20116;-72
2021/07/12 10:14:09;;;;;;;12.25;7.45;;;;;;;28.15;51.23;97778.06;5064722;28;20024;-73
2021/07/12 10:16:34;;;;;;;8.30;7.25;;;;;;;26.66;54.48;97766.06;5066324;28;20042;-73
2021/07/12 10:19:00;;;;;;;8.05;7.25;;;;;;;26.07;56.99;97768.53;5066490;28;20095;-75
2021/07/12 10:21:38;;;;;;;8.13;6.97;;;;;;;26.03;56.92;97768.53;5066675;28;20434;-74
2021/07/12 10:24:05;;;;;;;8.25;7.45;;;;;;;26.26;56.07;97759.72;5067102;28;20016;-74
2021/07/12 10:26:47;;;;;;;8.02;6.78;;;;;;;26.96;53.55;97767.16;5068899;28;20525;-75
2021/07/12 10:29:16;;;;;;;10.25;7.63;;;;;;;27.33;53.32;97760.94;5050296;28;20102;-73
2021/07/12 10:32:00;;;;;;;10.68;6.25;;;;;;;27.53;52.80;97756.44;5050534;28;20033;-73
2021/07/12 10:34:31;;;;;;;6.90;5.90;;;;;;;28.14;50.90;97749.13;5050305;28;20021;-75
2021/07/12 10:37:03;;;;;;;9.68;6.13;;;;;;;27.38;51.85;97762.53;5038216;28;20058;-73
2021/07/12 10:40:04;;;;;;;9.52;7.05;;;;;;;26.98;53.44;97749.91;5068975;28;20079;-74
2021/07/12 10:42:44;;;;;;;8.43;6.47;;;;;;;27.46;52.62;97750.84;5069328;28;20456;-75
2021/07/12 10:45:11;;;;;;;10.07;7.22;;;;;;;27.22;52.61;97754.59;5052029;28;20492;-73
2021/07/12 10:47:55;;;;;;;8.02;7.22;;;;;;;27.43;53.14;97750.88;5059820;28;20118;-73
2021/07/12 10:50:33;;;;;;;9.43;7.65;;;;;;;27.20;52.53;97734.53;5059957;28;20063;-73
2021/07/12 10:52:59;;;;;;;10.63;8.60;;;;;;;26.93;52.88;97736.28;5051436;28;20021;-73
2021/07/12 10:55:34;;;;;;;8.02;7.22;;;;;;;27.09;53.01;97747.84;5068675;28;20035;-74
2021/07/12 10:58:18;;;;;;;7.55;6.30;;;;;;;27.21;52.72;97744.56;5069953;28;20090;-73
2021/07/12 11:00:48;;;;;;;9.25;7.35;;;;;;;27.06;52.49;97741.03;5068461;28;20123;-73
2021/07/12 11:03:36;;;;;;;8.50;7.13;;;;;;;27.26;52.22;97741.31;5067775;28;20028;-74
2021/07/12 11:06:15;;;;;;;15.13;7.82;;;;;;;27.63;51.80;97732.25;5061773;28;20055;-76
2021/07/12 11:08:44;;;;;;;8.27;7.47;;;;;;;27.73;51.21;97728.56;5058873;28;20116;-74
2021/07/12 11:11:20;;;;;;;6.90;6.07;;;;;;;28.70;49.46;97732.84;5059728;28;20037;-75
2021/07/12 11:13:58;;;;;;;7.53;6.70;;;;;;;28.66;48.33;97730.09;5062202;28;20026;-73
2021/07/12 11:16:47;;;;;;;8.15;6.72;;;;;;;28.29;49.02;97734.94;5061676;28;20032;-75
2021/07/12 11:19:24;;;;;;;7.93;7.07;;;;;;;28.32;49.31;97731.28;5061743;28;20086;-72
2021/07/12 11:21:51;;;;;;;7.68;6.32;;;;;;;28.56;49.23;97725.38;5058932;28;20074;-74
2021/07/12 11:24:24;;;;;;;7.70;6.70;;;;;;;28.57;49.79;97729.75;5042236;28;20017;-73
2021/07/12 11:26:55;;;;;;;7.07;6.38;;;;;;;28.65;49.14;97728.50;5059791;28;20021;-75
2021/07/12 11:29:28;;;;;;;7.40;6.70;;;;;;;29.25;47.54;97728.97;5059613;28;20053;-74
2021/07/12 11:31:57;;;;;;;7.18;6.43;;;;;;;28.65;48.99;97722.06;5067724;28;20024;-73
2021/07/12 11:34:27;;;;;;;6.50;5.80;;;;;;;29.18;47.75;97721.38;5070074;28;20013;-75